Aérodrome :
LOGIN :

S'inscrire | Disclaimer

   EN    FR    IT 

 










Légende :    VFR   VFR Marginal   IFR   IFR Intensif   IFR Très Intensif
Visi : 
Plafond : 
>= 8 km
>= 3000ft
5 à 8 km
1000 à 3000 ft
1500m à 5 km
500 à 1000 ft
800 à 1500m
200 à 500 ft
< 800m
< 200 ft
Symboles :   Orages  Brouillard  Fortes neiges  Fortes précipitations  Vent > 20 kt
SIGMETs :   Divers  Orages  Givrage  Turbulence  Onde Orograph.  Cendres Volcan.






- Altitude de l'aérodrome : 1548 ft


LKNA - Náměšť Air Base

DERNIER METAR :
  • 190700Z 06004KT 0200 R31/0400U FG VV001 09/09 Q1014 NOSIG RMK RED RED

METARs EXPIRÉS :
  • 190600Z VRB02KT 0150 R31/0400U FG VV001 09/09 Q1015 NOSIG RMK RED RED
  • 190500Z 12003KT 090V150 0100 R31/0400U -DZ FG VV001 09/09 Q1015 NOSIG

TAF TAF LKNA
Valide du 19 à 06h jusqu'au 20 à 06h UTC


190500Z 1906/2006 12006KT 0400 FG -DZ VV001
BECMG 1909/1911 4000 BR SCT005 OVC008
BECMG 1913/1915 9999 BKN008
BECMG 1919/1921 4000 BR OVC006
PROB40 2000/2006 0500 FG VV001



MET'MAP, la Météo Aéronautique d'un coup d'oeil ! - Copyright ORBIFLY Décembre 2007 - Disclaimer

ORBIFLY MET'MAP TEAM :

Programmation & Développement : Alexandra Zaïnal
Conception & Développement : Baudouin d'Aumeries
Co-Programmation & Développement : Marc-Olivier Méhu
Soutien technique & logistique : Manuel Goepfert

Contact : metmap@orbifly.com




SOURCES & CREDITS :

   NOAA